createdAt,value
2023-03-26T00:00:44.743Z,18.00
2023-03-26T00:01:44.843Z,17.68
2023-03-26T00:02:44.924Z,18.64
2023-03-26T00:03:45.093Z,17.68
2023-03-26T00:04:45.053Z,18.00
2023-03-26T00:05:45.901Z,18.00
2023-03-26T00:06:45.203Z,17.35
2023-03-26T00:07:45.276Z,18.00
2023-03-26T00:08:45.361Z,18.32
2023-03-26T00:09:45.431Z,18.32
2023-03-26T00:10:45.537Z,18.00
2023-03-26T00:11:45.636Z,18.00
2023-03-26T00:12:45.707Z,18.96
2023-03-26T00:13:45.784Z,17.68
2023-03-26T00:14:45.870Z,19.93
2023-03-26T00:15:45.949Z,18.00
2023-03-26T00:16:46.085Z,18.64
2023-03-26T00:17:46.130Z,17.68
2023-03-26T00:18:46.167Z,19.93
2023-03-26T00:19:46.239Z,18.32
2023-03-26T00:20:46.315Z,17.68
2023-03-26T00:21:46.399Z,17.68
2023-03-26T00:22:46.487Z,17.68
2023-03-26T00:23:46.571Z,17.35
2023-03-26T00:24:52.631Z,17.68
2023-03-26T00:25:48.528Z,17.68
2023-03-26T00:26:46.798Z,17.35
2023-03-26T00:27:46.877Z,17.68
2023-03-26T00:28:46.988Z,18.32
2023-03-26T00:29:47.048Z,19.61
2023-03-26T00:30:47.133Z,18.00
2023-03-26T00:31:47.198Z,18.00
2023-03-26T00:32:53.652Z,17.68
2023-03-26T00:33:47.351Z,19.93
2023-03-26T00:34:47.452Z,17.68
2023-03-26T00:35:47.541Z,18.00
2023-03-26T00:36:47.617Z,18.32
2023-03-26T00:37:47.695Z,19.93
2023-03-26T00:38:47.759Z,18.32
2023-03-26T00:39:47.838Z,18.32
2023-03-26T00:40:47.933Z,17.68
2023-03-26T00:41:47.964Z,18.00
2023-03-26T00:42:48.036Z,18.64
2023-03-26T00:43:48.113Z,18.00
2023-03-26T00:44:48.189Z,18.32
2023-03-26T00:45:48.294Z,18.32
2023-03-26T00:46:48.364Z,18.00
2023-03-26T00:47:48.475Z,18.64
2023-03-26T00:48:48.544Z,18.64
2023-03-26T00:49:48.594Z,17.68
2023-03-26T00:50:48.665Z,19.61
2023-03-26T00:51:48.786Z,18.00
2023-03-26T00:52:48.867Z,18.64
2023-03-26T00:53:48.948Z,18.00
2023-03-26T00:54:49.013Z,19.93
2023-03-26T00:55:55.164Z,18.64
2023-03-26T00:56:49.231Z,18.32
2023-03-26T00:57:49.290Z,18.64
2023-03-26T00:58:49.473Z,18.32
2023-03-26T00:59:49.422Z,17.68
2023-03-26T01:00:49.501Z,17.68
2023-03-26T01:01:49.616Z,18.32
2023-03-26T01:02:49.727Z,18.32
2023-03-26T01:04:01.241Z,18.32
2023-03-26T01:04:49.849Z,18.00
2023-03-26T01:05:49.908Z,18.32
2023-03-26T01:06:49.988Z,18.64
2023-03-26T01:07:50.085Z,19.61
2023-03-26T01:08:50.182Z,18.32
2023-03-26T01:09:50.297Z,18.32
2023-03-26T01:10:51.240Z,18.32
2023-03-26T01:11:50.430Z,18.64
2023-03-26T01:12:50.512Z,18.32
2023-03-26T01:13:50.586Z,18.00
2023-03-26T01:14:51.179Z,18.64
2023-03-26T01:15:50.792Z,18.32
2023-03-26T01:16:50.810Z,17.68
2023-03-26T01:17:50.919Z,18.32
2023-03-26T01:18:50.977Z,18.32
2023-03-26T01:19:51.077Z,18.64
2023-03-26T01:20:51.182Z,18.32
2023-03-26T01:21:51.228Z,18.32
2023-03-26T01:22:51.306Z,18.64
2023-03-26T01:23:51.378Z,18.64
2023-03-26T01:24:51.453Z,17.68
2023-03-26T01:25:51.790Z,18.32
2023-03-26T01:26:57.606Z,18.32
2023-03-26T01:27:51.703Z,18.32
2023-03-26T01:28:51.792Z,19.29
2023-03-26T01:29:51.868Z,18.00
2023-03-26T01:30:51.993Z,18.96
2023-03-26T01:31:52.068Z,18.32
2023-03-26T01:32:52.243Z,18.00
2023-03-26T01:33:52.241Z,19.93
2023-03-26T01:34:52.317Z,18.64
2023-03-26T01:35:52.632Z,18.64
2023-03-26T01:36:52.500Z,18.64
2023-03-26T01:37:52.613Z,18.64
2023-03-26T01:38:52.661Z,18.32
2023-03-26T01:39:52.751Z,18.64
2023-03-26T01:40:52.817Z,18.64
2023-03-26T01:41:53.378Z,18.32
2023-03-26T01:42:52.969Z,18.00
2023-03-26T01:43:53.039Z,19.29
2023-03-26T01:44:53.110Z,18.96
2023-03-26T01:45:53.453Z,18.96
2023-03-26T01:46:53.304Z,20.58
2023-03-26T01:47:53.428Z,18.32
2023-03-26T01:48:53.433Z,18.64
2023-03-26T01:49:53.514Z,18.64
2023-03-26T01:50:53.675Z,18.32
2023-03-26T01:51:53.684Z,18.96
2023-03-26T01:52:53.774Z,18.64
2023-03-26T01:53:53.877Z,19.29
2023-03-26T01:54:53.934Z,19.61
2023-03-26T01:55:54.269Z,18.32
2023-03-26T01:56:54.100Z,18.96
2023-03-26T01:58:00.125Z,18.32
2023-03-26T01:58:54.279Z,18.32
2023-03-26T01:59:54.345Z,18.64
2023-03-26T02:00:54.429Z,18.32
2023-03-26T02:01:54.573Z,18.64
2023-03-26T02:02:54.710Z,18.96
2023-03-26T02:03:54.673Z,18.96
2023-03-26T02:04:54.750Z,19.29
2023-03-26T02:05:55.042Z,18.64
2023-03-26T02:06:54.903Z,18.64
2023-03-26T02:07:54.992Z,18.64
2023-03-26T02:08:55.068Z,18.64
2023-03-26T02:09:55.162Z,18.32
2023-03-26T02:10:55.238Z,19.93
2023-03-26T02:11:55.316Z,19.61
2023-03-26T02:12:55.386Z,18.64
2023-03-26T02:13:55.465Z,18.32
2023-03-26T02:14:55.580Z,18.64
2023-03-26T02:15:55.911Z,18.32
2023-03-26T02:16:55.688Z,18.64
2023-03-26T02:17:55.823Z,18.64
2023-03-26T02:18:55.885Z,18.64
2023-03-26T02:19:55.953Z,18.64
2023-03-26T02:20:56.090Z,18.96
2023-03-26T02:21:56.140Z,18.96
2023-03-26T02:22:56.219Z,18.96
2023-03-26T02:23:56.311Z,18.32
2023-03-26T02:24:56.375Z,18.96
2023-03-26T02:25:56.631Z,18.96
2023-03-26T02:26:56.555Z,18.64
2023-03-26T02:27:56.623Z,19.29
2023-03-26T02:29:02.695Z,18.96
2023-03-26T02:29:56.795Z,18.64
2023-03-26T02:30:56.865Z,18.64
2023-03-26T02:31:57.011Z,18.32
2023-03-26T02:32:57.054Z,18.96
2023-03-26T02:33:57.085Z,18.64
2023-03-26T02:34:57.163Z,18.96
2023-03-26T02:35:57.550Z,18.64
2023-03-26T02:36:57.311Z,18.64
2023-03-26T02:37:57.388Z,20.25
2023-03-26T02:38:57.459Z,20.25
2023-03-26T02:39:57.541Z,18.64
2023-03-26T02:40:57.603Z,18.64
2023-03-26T02:41:57.701Z,18.32
2023-03-26T02:42:57.783Z,18.64
2023-03-26T02:43:57.875Z,18.64
2023-03-26T02:44:57.910Z,18.64
2023-03-26T02:45:58.414Z,18.32
2023-03-26T02:46:58.085Z,18.64
2023-03-26T02:47:58.182Z,18.64
2023-03-26T02:48:58.267Z,18.64
2023-03-26T02:49:58.338Z,18.96
2023-03-26T02:50:58.550Z,18.96
2023-03-26T02:51:58.499Z,18.96
2023-03-26T02:52:58.581Z,19.29
2023-03-26T02:53:58.670Z,19.93
2023-03-26T02:54:58.771Z,18.96
2023-03-26T02:55:58.840Z,18.32
2023-03-26T02:56:58.958Z,20.25
2023-03-26T02:57:58.995Z,18.96
2023-03-26T02:58:59.065Z,18.64
2023-03-26T03:00:05.420Z,18.64
2023-03-26T03:00:59.276Z,18.96
2023-03-26T03:01:59.396Z,19.93
2023-03-26T03:02:59.460Z,20.58
2023-03-26T03:03:59.494Z,18.64
2023-03-26T03:04:59.564Z,18.32
2023-03-26T03:05:59.700Z,18.96
2023-03-26T03:06:59.777Z,18.64
2023-03-26T03:07:59.862Z,19.61
2023-03-26T03:08:59.930Z,18.64
2023-03-26T03:10:00.007Z,18.64
2023-03-26T03:11:00.084Z,20.90
2023-03-26T03:12:00.144Z,19.29
2023-03-26T03:13:00.215Z,18.64
2023-03-26T03:14:00.295Z,19.29
2023-03-26T03:15:00.367Z,20.90
2023-03-26T03:16:00.439Z,18.96
2023-03-26T03:17:00.596Z,18.64
2023-03-26T03:18:00.630Z,18.64
2023-03-26T03:19:00.672Z,18.64
2023-03-26T03:20:00.730Z,18.32
2023-03-26T03:21:00.810Z,19.93
2023-03-26T03:22:00.883Z,18.64
2023-03-26T03:23:00.993Z,18.96
2023-03-26T03:24:01.038Z,18.96
2023-03-26T03:25:01.121Z,18.96
2023-03-26T03:26:01.179Z,18.64
2023-03-26T03:27:01.243Z,19.61
2023-03-26T03:28:01.345Z,18.64
2023-03-26T03:29:01.452Z,19.29
2023-03-26T03:30:01.494Z,18.64
2023-03-26T03:31:07.560Z,18.96
2023-03-26T03:32:01.628Z,18.96
2023-03-26T03:33:01.761Z,19.29
2023-03-26T03:34:01.817Z,18.96
2023-03-26T03:35:01.908Z,20.90
2023-03-26T03:36:02.031Z,19.29
2023-03-26T03:37:02.081Z,18.96
2023-03-26T03:38:02.147Z,18.96
2023-03-26T03:39:02.244Z,18.96
2023-03-26T03:40:02.349Z,18.96
2023-03-26T03:41:02.411Z,18.96
2023-03-26T03:42:02.490Z,19.29
2023-03-26T03:43:02.561Z,18.96
2023-03-26T03:44:02.637Z,20.25
2023-03-26T03:45:02.701Z,18.64
2023-03-26T03:46:02.913Z,20.58
2023-03-26T03:47:02.867Z,18.96
2023-03-26T03:48:03.029Z,20.25
2023-03-26T03:49:03.034Z,19.61
2023-03-26T03:50:03.134Z,19.29
2023-03-26T03:51:03.209Z,20.58
2023-03-26T03:52:03.297Z,18.64
2023-03-26T03:53:03.376Z,19.29
2023-03-26T03:54:03.451Z,18.64
2023-03-26T03:55:03.538Z,18.64
2023-03-26T03:56:03.616Z,18.64
2023-03-26T03:57:03.717Z,18.64
2023-03-26T03:58:03.818Z,18.64
2023-03-26T03:59:03.862Z,18.96
2023-03-26T04:00:06.351Z,18.96
2023-03-26T04:01:04.037Z,18.64
2023-03-26T04:02:10.116Z,18.96
2023-03-26T04:03:04.321Z,20.58
2023-03-26T04:04:04.332Z,18.32
2023-03-26T04:05:04.414Z,18.32
2023-03-26T04:06:04.448Z,18.64
2023-03-26T04:07:04.529Z,18.96
2023-03-26T04:08:04.611Z,18.32
2023-03-26T04:09:04.689Z,18.64
2023-03-26T04:10:04.754Z,18.32
2023-03-26T04:11:04.834Z,18.96
2023-03-26T04:12:04.912Z,18.64
2023-03-26T04:13:04.986Z,18.96
2023-03-26T04:14:05.082Z,19.29
2023-03-26T04:15:05.155Z,19.29
2023-03-26T04:16:05.249Z,20.25
2023-03-26T04:17:05.353Z,18.64
2023-03-26T04:18:05.412Z,19.29
2023-03-26T04:19:05.505Z,18.64
2023-03-26T04:20:05.580Z,19.61
2023-03-26T04:21:05.644Z,18.64
2023-03-26T04:22:05.740Z,18.96
2023-03-26T04:23:05.807Z,20.58
2023-03-26T04:24:05.889Z,18.96
2023-03-26T04:25:06.010Z,18.64
2023-03-26T04:26:06.063Z,18.96
2023-03-26T04:27:06.149Z,18.64
2023-03-26T04:28:06.248Z,18.00
2023-03-26T04:29:06.309Z,18.64
2023-03-26T04:30:06.394Z,19.61
2023-03-26T04:31:06.582Z,18.96
2023-03-26T04:32:06.750Z,18.96
2023-03-26T04:33:12.594Z,18.96
2023-03-26T04:34:06.696Z,19.29
2023-03-26T04:35:06.779Z,18.96
2023-03-26T04:36:06.925Z,18.96
2023-03-26T04:37:06.980Z,18.96
2023-03-26T04:38:07.071Z,18.96
2023-03-26T04:39:07.147Z,18.64
2023-03-26T04:40:07.237Z,18.64
2023-03-26T04:41:07.299Z,20.90
2023-03-26T04:42:07.407Z,18.96
2023-03-26T04:43:07.514Z,19.61
2023-03-26T04:44:07.594Z,18.96
2023-03-26T04:45:07.651Z,18.64
2023-03-26T04:46:07.736Z,19.61
2023-03-26T04:47:07.812Z,19.29
2023-03-26T04:48:07.903Z,20.58
2023-03-26T04:49:08.034Z,20.25
2023-03-26T04:50:08.052Z,18.96
2023-03-26T04:51:08.138Z,18.96
2023-03-26T04:52:08.213Z,19.61
2023-03-26T04:53:08.296Z,18.96
2023-03-26T04:54:08.389Z,18.96
2023-03-26T04:55:08.488Z,18.64
2023-03-26T04:56:08.560Z,19.29
2023-03-26T04:57:08.673Z,18.96
2023-03-26T04:58:08.725Z,18.96
2023-03-26T04:59:08.808Z,18.64
2023-03-26T05:00:08.879Z,18.32
2023-03-26T05:01:10.543Z,18.32
2023-03-26T05:02:09.037Z,18.96
2023-03-26T05:03:09.164Z,20.25
2023-03-26T05:04:15.212Z,18.96
2023-03-26T05:05:09.292Z,18.64
2023-03-26T05:06:09.410Z,18.64
2023-03-26T05:07:09.513Z,19.29
2023-03-26T05:08:09.585Z,18.64
2023-03-26T05:09:09.659Z,18.96
2023-03-26T05:10:09.734Z,18.96
2023-03-26T05:11:09.871Z,18.96
2023-03-26T05:12:09.932Z,18.64
2023-03-26T05:13:09.999Z,18.96
2023-03-26T05:14:10.076Z,20.58
2023-03-26T05:15:10.139Z,19.29
2023-03-26T05:16:10.243Z,18.64
2023-03-26T05:17:10.291Z,18.64
2023-03-26T05:18:10.425Z,19.93
2023-03-26T05:19:10.462Z,19.61
2023-03-26T05:20:10.531Z,18.96
2023-03-26T05:21:10.611Z,18.96
2023-03-26T05:22:10.692Z,18.96
2023-03-26T05:23:10.794Z,18.64
2023-03-26T05:24:10.879Z,20.25
2023-03-26T05:25:10.952Z,19.29
2023-03-26T05:26:11.038Z,18.96
2023-03-26T05:27:11.122Z,19.61
2023-03-26T05:28:11.204Z,20.58
2023-03-26T05:29:11.301Z,19.61
2023-03-26T05:30:11.385Z,18.96
2023-03-26T05:31:11.456Z,18.96
2023-03-26T05:32:11.539Z,20.58
2023-03-26T05:33:11.701Z,18.64
2023-03-26T05:34:11.710Z,19.29
2023-03-26T05:35:18.105Z,18.96
2023-03-26T05:36:11.874Z,19.29
2023-03-26T05:37:11.952Z,18.96
2023-03-26T05:38:12.040Z,18.96
2023-03-26T05:39:12.115Z,18.32
2023-03-26T05:40:12.277Z,19.61
2023-03-26T05:41:12.295Z,19.61
2023-03-26T05:42:12.322Z,19.29
2023-03-26T05:43:12.404Z,18.64
2023-03-26T05:44:12.484Z,19.29
2023-03-26T05:45:12.561Z,18.96
2023-03-26T05:46:12.665Z,18.96
2023-03-26T05:47:12.729Z,19.93
2023-03-26T05:48:12.809Z,18.96
2023-03-26T05:49:12.884Z,20.58
2023-03-26T05:50:12.973Z,19.61
2023-03-26T05:51:13.053Z,19.29
2023-03-26T05:52:13.139Z,18.96
2023-03-26T05:53:13.232Z,18.96
2023-03-26T05:54:13.312Z,19.61
2023-03-26T05:55:13.377Z,20.25
2023-03-26T05:56:13.483Z,18.64
2023-03-26T05:57:13.669Z,18.96
2023-03-26T05:58:13.664Z,18.32
2023-03-26T05:59:13.731Z,19.29
2023-03-26T06:00:13.797Z,18.96
2023-03-26T06:01:13.874Z,20.58
2023-03-26T06:02:13.948Z,19.29
2023-03-26T06:03:14.149Z,18.96
2023-03-26T06:04:14.218Z,19.29
2023-03-26T06:05:14.217Z,19.29
2023-03-26T06:06:20.249Z,18.96
2023-03-26T06:07:14.343Z,19.29
2023-03-26T06:08:14.455Z,19.61
2023-03-26T06:09:14.567Z,18.96
2023-03-26T06:10:18.061Z,19.29
2023-03-26T06:11:14.784Z,18.96
2023-03-26T06:12:14.802Z,19.61
2023-03-26T06:13:14.865Z,19.29
2023-03-26T06:14:14.964Z,20.58
2023-03-26T06:15:15.037Z,19.29
2023-03-26T06:16:27.049Z,18.96
2023-03-26T06:17:15.215Z,18.96
2023-03-26T06:18:15.289Z,18.64
2023-03-26T06:19:15.361Z,19.61
2023-03-26T06:20:15.542Z,18.96
2023-03-26T06:21:15.516Z,19.61
2023-03-26T06:22:15.593Z,18.96
2023-03-26T06:23:15.644Z,19.61
2023-03-26T06:24:15.747Z,18.96
2023-03-26T06:25:15.845Z,20.90
2023-03-26T06:26:15.934Z,19.29
2023-03-26T06:27:16.003Z,18.96
2023-03-26T06:28:16.081Z,18.64
2023-03-26T06:29:16.164Z,19.29
2023-03-26T06:30:16.233Z,20.90
2023-03-26T06:31:16.331Z,21.22
2023-03-26T06:32:20.008Z,19.61
2023-03-26T06:33:16.466Z,20.25
2023-03-26T06:34:16.547Z,19.29
2023-03-26T06:35:16.624Z,19.61
2023-03-26T06:36:16.745Z,20.25
2023-03-26T06:37:23.042Z,19.29
2023-03-26T06:38:16.873Z,19.29
2023-03-26T06:39:16.940Z,18.96
2023-03-26T06:40:17.011Z,19.61
2023-03-26T06:41:17.109Z,20.25
2023-03-26T06:42:17.191Z,20.25
2023-03-26T06:43:17.277Z,20.58
2023-03-26T06:44:17.355Z,19.29
2023-03-26T06:45:17.436Z,19.61
2023-03-26T06:46:17.536Z,20.58
2023-03-26T06:47:17.592Z,19.29
2023-03-26T06:48:17.673Z,19.61
2023-03-26T06:49:17.765Z,19.93
2023-03-26T06:50:17.818Z,19.29
2023-03-26T06:51:17.902Z,18.96
2023-03-26T06:52:17.978Z,19.29
2023-03-26T06:53:18.055Z,19.29
2023-03-26T06:54:18.139Z,20.90
2023-03-26T06:55:18.224Z,19.29
2023-03-26T06:56:18.295Z,19.93
2023-03-26T06:57:18.398Z,19.61
2023-03-26T06:58:18.478Z,19.29
2023-03-26T06:59:18.563Z,21.22
2023-03-26T07:00:18.665Z,19.29
2023-03-26T07:01:18.725Z,19.93
2023-03-26T07:02:18.789Z,21.22
2023-03-26T07:03:18.914Z,19.29
2023-03-26T07:04:18.965Z,21.22
2023-03-26T07:05:19.036Z,19.93
2023-03-26T07:06:19.106Z,18.96
2023-03-26T07:07:19.166Z,19.29
2023-03-26T07:08:26.386Z,19.61
2023-03-26T07:09:19.356Z,19.61
2023-03-26T07:10:19.420Z,20.58
2023-03-26T07:11:19.507Z,21.22
2023-03-26T07:12:19.599Z,19.61
2023-03-26T07:13:19.666Z,19.29
2023-03-26T07:14:19.774Z,19.93
2023-03-26T07:15:19.861Z,21.22
2023-03-26T07:16:20.137Z,19.93
2023-03-26T07:17:20.025Z,19.61
2023-03-26T07:18:20.096Z,19.61
2023-03-26T07:19:20.174Z,20.25
2023-03-26T07:20:20.248Z,19.61
2023-03-26T07:21:20.320Z,19.29
2023-03-26T07:22:20.411Z,21.22
2023-03-26T07:23:20.506Z,19.61
2023-03-26T07:24:20.560Z,19.29
2023-03-26T07:25:20.637Z,19.93
2023-03-26T07:26:20.715Z,19.61
2023-03-26T07:27:20.790Z,21.87
2023-03-26T07:28:20.903Z,20.25
2023-03-26T07:29:20.951Z,21.22
2023-03-26T07:30:21.032Z,19.61
2023-03-26T07:31:21.112Z,20.25
2023-03-26T07:32:21.250Z,20.25
2023-03-26T07:33:21.280Z,19.29
2023-03-26T07:34:21.352Z,20.25
2023-03-26T07:35:21.444Z,19.93
2023-03-26T07:36:21.503Z,20.25
2023-03-26T07:37:21.588Z,19.93
2023-03-26T07:38:21.660Z,19.61
2023-03-26T07:39:28.222Z,19.61
2023-03-26T07:40:21.875Z,20.25
2023-03-26T07:41:21.900Z,19.93
2023-03-26T07:42:22.001Z,19.93
2023-03-26T07:43:22.067Z,19.93
2023-03-26T07:44:22.141Z,20.90
2023-03-26T07:45:22.236Z,19.61
2023-03-26T07:46:22.322Z,19.93
2023-03-26T07:47:22.442Z,20.25
2023-03-26T07:48:22.462Z,19.93
2023-03-26T07:49:22.570Z,19.93
2023-03-26T07:50:22.755Z,19.61
2023-03-26T07:51:22.745Z,19.93
2023-03-26T07:52:22.810Z,20.25
2023-03-26T07:53:22.882Z,19.93
2023-03-26T07:54:22.964Z,20.25
2023-03-26T07:55:23.038Z,20.25
2023-03-26T07:56:23.137Z,20.25
2023-03-26T07:57:23.206Z,19.93
2023-03-26T07:58:23.276Z,20.25
2023-03-26T07:59:23.350Z,19.61
2023-03-26T08:00:23.417Z,19.29
2023-03-26T08:01:23.505Z,19.61
2023-03-26T08:02:23.642Z,20.25
2023-03-26T08:03:23.810Z,19.29
2023-03-26T08:04:25.960Z,19.93
2023-03-26T08:05:23.880Z,19.93
2023-03-26T08:06:23.924Z,19.93
2023-03-26T08:07:24.017Z,19.93
2023-03-26T08:08:25.520Z,19.93
2023-03-26T08:09:24.189Z,19.61
2023-03-26T08:10:30.242Z,20.25
2023-03-26T08:11:24.340Z,19.93
2023-03-26T08:12:24.429Z,20.25
2023-03-26T08:13:24.512Z,21.54
2023-03-26T08:14:24.584Z,22.51
2023-03-26T08:15:24.674Z,21.54
2023-03-26T08:16:24.724Z,20.25
2023-03-26T08:17:24.915Z,19.93
2023-03-26T08:18:24.903Z,20.58
2023-03-26T08:19:24.992Z,19.93
2023-03-26T08:20:25.064Z,20.25
2023-03-26T08:21:25.164Z,20.58
2023-03-26T08:22:25.230Z,20.25
2023-03-26T08:23:25.314Z,20.25
2023-03-26T08:24:25.401Z,20.90
2023-03-26T08:25:25.516Z,20.58
2023-03-26T08:26:25.567Z,20.25
2023-03-26T08:27:25.633Z,19.93
2023-03-26T08:28:25.706Z,19.93
2023-03-26T08:29:25.779Z,20.25
2023-03-26T08:30:25.867Z,20.90
2023-03-26T08:31:25.973Z,20.25
2023-03-26T08:32:26.088Z,19.29
2023-03-26T08:33:26.094Z,19.61
2023-03-26T08:34:26.154Z,19.93
2023-03-26T08:35:26.297Z,20.90
2023-03-26T08:36:26.310Z,19.93
2023-03-26T08:37:26.426Z,20.25
2023-03-26T08:38:26.524Z,20.25
2023-03-26T08:39:26.560Z,20.25
2023-03-26T08:40:26.640Z,19.93
2023-03-26T08:41:32.698Z,21.54
2023-03-26T08:42:26.796Z,19.93
2023-03-26T08:43:26.900Z,20.25
2023-03-26T08:44:26.935Z,21.54
2023-03-26T08:45:27.045Z,19.93
2023-03-26T08:46:27.123Z,21.54
2023-03-26T08:47:27.151Z,20.25
2023-03-26T08:48:27.259Z,20.25
2023-03-26T08:49:29.129Z,20.25
2023-03-26T08:50:27.375Z,20.25
2023-03-26T08:51:27.457Z,19.93
2023-03-26T08:52:27.538Z,19.93
2023-03-26T08:53:27.615Z,20.58
2023-03-26T08:54:27.710Z,20.25
2023-03-26T08:55:27.796Z,20.90
2023-03-26T08:56:27.869Z,21.87
2023-03-26T08:57:27.944Z,19.93
2023-03-26T08:58:28.036Z,21.22
2023-03-26T08:59:28.119Z,19.93
2023-03-26T09:00:28.189Z,20.90
2023-03-26T09:01:28.299Z,20.25
2023-03-26T09:02:28.344Z,22.19
2023-03-26T09:03:28.429Z,19.93
2023-03-26T09:04:28.489Z,21.87
2023-03-26T09:05:28.579Z,20.58
2023-03-26T09:06:28.668Z,19.93
2023-03-26T09:07:28.726Z,20.25
2023-03-26T09:08:30.158Z,20.58
2023-03-26T09:09:28.933Z,20.58
2023-03-26T09:10:28.990Z,20.25
2023-03-26T09:11:29.052Z,20.90
2023-03-26T09:12:35.117Z,20.25
2023-03-26T09:13:29.224Z,20.25
2023-03-26T09:14:29.282Z,20.25
2023-03-26T09:15:29.385Z,20.25
2023-03-26T09:16:29.508Z,20.25
2023-03-26T09:17:29.574Z,19.93
2023-03-26T09:18:29.646Z,20.25
2023-03-26T09:19:29.724Z,21.22
2023-03-26T09:20:29.799Z,20.58
2023-03-26T09:21:29.879Z,20.25
2023-03-26T09:22:29.972Z,21.54
2023-03-26T09:23:30.050Z,20.58
2023-03-26T09:24:30.133Z,20.58
2023-03-26T09:25:30.228Z,20.58
2023-03-26T09:26:30.313Z,20.58
2023-03-26T09:27:30.409Z,20.58
2023-03-26T09:28:30.493Z,20.58
2023-03-26T09:29:32.377Z,20.58
2023-03-26T09:30:30.657Z,20.58
2023-03-26T09:31:30.763Z,20.58
2023-03-26T09:32:30.848Z,20.90
2023-03-26T09:33:30.896Z,20.58
2023-03-26T09:34:30.974Z,20.90
2023-03-26T09:35:31.062Z,20.58
2023-03-26T09:36:31.124Z,20.58
2023-03-26T09:37:31.203Z,20.58
2023-03-26T09:38:31.285Z,20.58
2023-03-26T09:39:31.369Z,22.51
2023-03-26T09:40:31.460Z,21.54
2023-03-26T09:41:31.492Z,20.25
2023-03-26T09:42:31.557Z,22.51
2023-03-26T09:43:37.605Z,20.90
2023-03-26T09:44:31.717Z,20.90
2023-03-26T09:45:31.868Z,20.90
2023-03-26T09:46:31.918Z,21.22
2023-03-26T09:47:32.027Z,20.58
2023-03-26T09:48:32.053Z,20.58
2023-03-26T09:49:32.131Z,20.90
2023-03-26T09:50:32.212Z,20.58
2023-03-26T09:51:32.312Z,20.58
2023-03-26T09:52:33.132Z,22.51
2023-03-26T09:53:32.442Z,20.58
2023-03-26T09:54:32.525Z,20.90
2023-03-26T09:55:32.587Z,21.22
2023-03-26T09:56:32.734Z,20.90
2023-03-26T09:57:32.771Z,21.54
2023-03-26T09:58:32.834Z,20.90
2023-03-26T09:59:32.908Z,22.51
2023-03-26T10:00:32.983Z,20.25
2023-03-26T10:01:33.066Z,20.90
2023-03-26T10:02:45.785Z,21.22
2023-03-26T10:03:33.295Z,20.25
2023-03-26T10:04:33.497Z,20.58
2023-03-26T10:05:33.407Z,20.58
2023-03-26T10:06:33.470Z,20.90
2023-03-26T10:07:33.548Z,20.58
2023-03-26T10:08:33.665Z,20.90
2023-03-26T10:09:33.702Z,20.58
2023-03-26T10:10:33.776Z,20.58
2023-03-26T10:11:33.853Z,20.58
2023-03-26T10:12:33.934Z,20.90
2023-03-26T10:13:34.019Z,20.25
2023-03-26T10:14:40.067Z,20.58
2023-03-26T10:15:34.158Z,20.90
2023-03-26T10:16:34.295Z,21.54
2023-03-26T10:17:34.407Z,20.58
2023-03-26T10:18:34.382Z,20.58
2023-03-26T10:19:34.475Z,20.58
2023-03-26T10:20:34.543Z,20.90
2023-03-26T10:21:34.626Z,20.58
2023-03-26T10:22:34.697Z,20.90
2023-03-26T10:23:34.799Z,21.22
2023-03-26T10:24:34.883Z,21.22
2023-03-26T10:25:34.986Z,21.22
2023-03-26T10:26:35.057Z,20.58
2023-03-26T10:27:35.134Z,20.90
2023-03-26T10:28:35.208Z,21.22
2023-03-26T10:29:35.298Z,20.90
2023-03-26T10:30:35.389Z,22.19
2023-03-26T10:31:35.460Z,22.51
2023-03-26T10:32:35.564Z,20.58
2023-03-26T10:33:35.563Z,20.58
2023-03-26T10:34:35.627Z,20.58
2023-03-26T10:35:35.742Z,20.90
2023-03-26T10:36:35.796Z,20.90
2023-03-26T10:37:35.893Z,20.90
2023-03-26T10:38:35.956Z,20.58
2023-03-26T10:39:38.827Z,20.58
2023-03-26T10:40:36.128Z,19.93
2023-03-26T10:41:36.200Z,20.90
2023-03-26T10:42:36.295Z,20.90
2023-03-26T10:43:36.395Z,20.58
2023-03-26T10:44:36.452Z,20.90
2023-03-26T10:45:42.503Z,20.90
2023-03-26T10:46:36.635Z,20.90
2023-03-26T10:47:36.724Z,20.90
2023-03-26T10:48:36.782Z,20.90
2023-03-26T10:49:36.846Z,20.90
2023-03-26T10:50:36.919Z,21.22
2023-03-26T10:51:36.993Z,20.90
2023-03-26T10:52:37.084Z,21.22
2023-03-26T10:53:37.210Z,20.58
2023-03-26T10:54:37.287Z,21.22
2023-03-26T10:55:37.367Z,19.61
2023-03-26T10:56:37.536Z,20.90
2023-03-26T10:57:37.526Z,21.22
2023-03-26T10:58:48.954Z,20.90
2023-03-26T10:59:37.673Z,22.19
2023-03-26T11:00:37.744Z,20.90
2023-03-26T11:01:37.854Z,21.22
2023-03-26T11:02:37.964Z,20.90
2023-03-26T11:03:37.990Z,20.90
2023-03-26T11:04:38.091Z,21.87
2023-03-26T11:05:38.194Z,20.90
2023-03-26T11:06:38.233Z,20.58
2023-03-26T11:07:38.303Z,19.93
2023-03-26T11:08:38.381Z,21.22
2023-03-26T11:09:38.460Z,20.90
2023-03-26T11:10:38.543Z,22.19
2023-03-26T11:11:38.639Z,21.22
2023-03-26T11:12:38.698Z,20.90
2023-03-26T11:13:38.775Z,21.54
2023-03-26T11:14:38.848Z,20.90
2023-03-26T11:15:38.978Z,20.58
2023-03-26T11:16:44.975Z,20.58
2023-03-26T11:17:39.425Z,20.90
2023-03-26T11:18:39.153Z,21.54
2023-03-26T11:19:39.225Z,22.83
2023-03-26T11:20:39.317Z,20.90
2023-03-26T11:21:39.416Z,20.90
2023-03-26T11:22:39.481Z,22.19
2023-03-26T11:23:39.585Z,21.87
2023-03-26T11:24:39.674Z,21.22
2023-03-26T11:25:39.745Z,20.58
2023-03-26T11:26:39.866Z,22.19
2023-03-26T11:27:39.955Z,20.90
2023-03-26T11:28:40.026Z,21.22
2023-03-26T11:29:40.101Z,20.90
2023-03-26T11:30:40.157Z,21.22
2023-03-26T11:31:40.279Z,20.58
2023-03-26T11:32:40.345Z,20.58
2023-03-26T11:33:45.545Z,20.58
2023-03-26T11:34:40.489Z,19.93
2023-03-26T11:35:41.703Z,20.90
2023-03-26T11:36:40.653Z,21.54
2023-03-26T11:37:40.729Z,20.90
2023-03-26T11:38:40.808Z,21.22
2023-03-26T11:39:40.901Z,21.87
2023-03-26T11:40:40.977Z,20.90
2023-03-26T11:41:41.103Z,20.58
2023-03-26T11:42:41.213Z,22.19
2023-03-26T11:43:41.245Z,20.58
2023-03-26T11:44:41.333Z,22.51
2023-03-26T11:45:41.404Z,20.90
2023-03-26T11:46:41.497Z,21.87
2023-03-26T11:47:47.565Z,21.22
2023-03-26T11:48:41.651Z,21.22
2023-03-26T11:49:41.725Z,22.51
2023-03-26T11:50:41.822Z,20.25
2023-03-26T11:51:41.864Z,20.58
2023-03-26T11:52:41.941Z,20.58
2023-03-26T11:53:42.008Z,20.90
2023-03-26T11:54:42.101Z,20.90
2023-03-26T11:55:42.221Z,20.90
2023-03-26T11:56:42.246Z,20.90
2023-03-26T11:57:42.312Z,20.90
2023-03-26T11:58:42.400Z,20.58
2023-03-26T11:59:55.835Z,20.58
2023-03-26T12:00:42.559Z,22.83
2023-03-26T12:01:42.666Z,20.90
2023-03-26T12:02:42.796Z,20.90
2023-03-26T12:03:42.778Z,21.22
2023-03-26T12:04:42.894Z,20.90
2023-03-26T12:05:42.922Z,20.90
2023-03-26T12:06:43.036Z,20.58
2023-03-26T12:07:43.109Z,20.58
2023-03-26T12:08:43.182Z,20.25
2023-03-26T12:09:43.273Z,20.58
2023-03-26T12:10:43.347Z,20.25
2023-03-26T12:11:43.451Z,20.58
2023-03-26T12:12:43.544Z,20.90
2023-03-26T12:13:43.619Z,21.87
2023-03-26T12:14:43.698Z,20.58
2023-03-26T12:15:43.789Z,20.25
2023-03-26T12:16:43.894Z,20.90
2023-03-26T12:17:43.996Z,20.58
2023-03-26T12:18:50.000Z,20.58
2023-03-26T12:19:44.116Z,20.90
2023-03-26T12:20:44.181Z,20.58
2023-03-26T12:21:44.253Z,20.58
2023-03-26T12:22:45.297Z,20.58
2023-03-26T12:23:44.467Z,20.90
2023-03-26T12:24:44.515Z,20.90
2023-03-26T12:25:44.580Z,20.58
2023-03-26T12:26:44.643Z,20.58
2023-03-26T12:27:44.725Z,20.25
2023-03-26T12:28:44.831Z,20.58
2023-03-26T12:29:44.901Z,19.93
2023-03-26T12:30:44.987Z,20.90
2023-03-26T12:31:45.089Z,20.25
2023-03-26T12:32:46.843Z,20.90
2023-03-26T12:33:45.222Z,20.90
2023-03-26T12:34:45.297Z,20.58
2023-03-26T12:35:45.438Z,20.58
2023-03-26T12:36:45.440Z,20.58
2023-03-26T12:37:45.512Z,20.90
2023-03-26T12:38:45.593Z,22.51
2023-03-26T12:40:09.107Z,19.93
2023-03-26T12:40:45.774Z,20.58
2023-03-26T12:43:40.480Z,20.25
2023-03-26T12:44:59.948Z,21.54
2023-03-26T12:45:06.350Z,20.25
2023-03-26T12:47:54.392Z,20.58
2023-03-26T12:48:07.039Z,21.54
2023-03-26T12:48:13.047Z,20.58
2023-03-26T12:49:13.152Z,21.54
2023-03-26T12:50:34.199Z,21.22
2023-03-26T12:51:13.163Z,20.25
2023-03-26T12:52:13.212Z,20.90
2023-03-26T12:53:13.314Z,20.58
2023-03-26T12:54:13.385Z,20.58
2023-03-26T12:55:13.472Z,20.25